Time;durP1;ratioP1;P1;durP2;ratioP2;P2;SDS_P1;SDS_P2;PMS_P1;PMS_P2;Temp;Humidity;BMP_temperature;BMP_pressure;BME280_temperature;BME280_humidity;BME280_pressure;Samples;Min_cycle;Max_cycle;Signal;HPM_P1;HPM_P2
2022/07/18 00:00:55;;;;;;;2.42;0.50;;;;;;;17.23;100.00;100364.19;7391293;19;20022;-83
2022/07/18 00:03:21;;;;;;;1.55;0.20;;;;;;;17.19;100.00;100363.69;7389673;19;20018;-82
2022/07/18 00:05:47;;;;;;;0.50;0.28;;;;;;;17.24;100.00;100369.31;7392294;19;20018;-86
2022/07/18 00:08:13;;;;;;;0.77;0.25;;;;;;;17.19;100.00;100372.13;7391782;19;20045;-82
2022/07/18 00:10:39;;;;;;;0.50;0.20;;;;;;;17.18;100.00;100367.75;7391971;19;20011;-85
2022/07/18 00:13:05;;;;;;;0.25;0.10;;;;;;;17.20;100.00;100365.19;7387918;19;20021;-80
2022/07/18 00:15:32;;;;;;;0.85;0.38;;;;;;;17.17;100.00;100369.06;7386918;19;20003;-79
2022/07/18 00:17:58;;;;;;;0.50;0.10;;;;;;;17.12;100.00;100367.75;7390131;19;20018;-84
2022/07/18 00:20:24;;;;;;;2.00;0.43;;;;;;;17.02;100.00;100365.69;7393613;19;20018;-85
2022/07/18 00:22:50;;;;;;;1.27;0.65;;;;;;;17.03;100.00;100370.81;7393175;19;20415;-81
2022/07/18 00:25:16;;;;;;;2.63;0.60;;;;;;;17.00;100.00;100368.25;7394947;19;20011;-90
2022/07/18 00:27:42;;;;;;;9.23;0.47;;;;;;;16.97;100.00;100361.59;7397919;19;20006;-85
2022/07/18 00:30:10;;;;;;;1.48;0.43;;;;;;;16.96;100.00;100365.66;7393030;19;20019;-84
2022/07/18 00:32:36;;;;;;;15.80;0.50;;;;;;;16.98;100.00;100367.97;7393311;19;20021;-89
2022/07/18 00:35:03;;;;;;;1.23;0.25;;;;;;;16.96;100.00;100368.47;7391361;19;20021;-90
2022/07/18 00:37:29;;;;;;;0.55;0.17;;;;;;;16.96;100.00;100367.69;7391280;19;20018;-84
2022/07/18 00:39:55;;;;;;;1.45;0.40;;;;;;;16.94;100.00;100367.44;7391495;19;20019;-87
2022/07/18 00:42:21;;;;;;;1.27;0.50;;;;;;;16.88;100.00;100370.25;7396612;19;20027;-84
2022/07/18 00:44:53;;;;;;;0.98;0.20;;;;;;;16.84;100.00;100374.56;7393923;19;20111;-81
2022/07/18 00:47:20;;;;;;;1.50;0.30;;;;;;;16.80;100.00;100369.19;7393250;19;20011;-83
2022/07/18 00:49:46;;;;;;;1.80;0.40;;;;;;;16.80;100.00;100371.25;7392295;19;20025;-81
2022/07/18 00:52:12;;;;;;;2.05;0.20;;;;;;;16.78;100.00;100370.97;7391564;19;20014;-82
2022/07/18 00:54:39;;;;;;;2.10;0.80;;;;;;;16.78;100.00;100370.97;7388618;19;20023;-85
2022/07/18 00:57:05;;;;;;;1.55;0.20;;;;;;;16.77;100.00;100375.81;7395779;19;20030;-87
2022/07/18 01:02:18;;;;;;;4.95;0.50;;;;;;;16.71;100.00;100377.06;7386921;19;20629;-76
2022/07/18 01:04:45;;;;;;;0.43;0.30;;;;;;;16.70;100.00;100372.75;7386375;19;20015;-77
2022/07/18 01:07:11;;;;;;;3.60;1.27;;;;;;;16.66;100.00;100376.56;7390941;19;20015;-77
2022/07/18 01:09:38;;;;;;;0.90;0.20;;;;;;;16.68;100.00;100376.81;7387125;19;20018;-76
2022/07/18 01:12:05;;;;;;;1.13;0.22;;;;;;;16.65;100.00;100375.00;7388274;19;20037;-77
2022/07/18 01:14:32;;;;;;;1.55;0.20;;;;;;;16.59;100.00;100371.41;7386847;19;20665;-76
2022/07/18 01:16:58;;;;;;;2.58;0.57;;;;;;;16.54;100.00;100363.72;7387469;19;20025;-76
2022/07/18 01:19:24;;;;;;;1.65;0.65;;;;;;;16.56;100.00;100372.44;7383402;19;20468;-76
2022/07/18 01:21:50;;;;;;;0.90;0.30;;;;;;;16.56;100.00;100374.47;7385375;19;20018;-76
2022/07/18 01:24:17;;;;;;;1.85;0.50;;;;;;;16.51;100.00;100367.53;7383055;19;20026;-76
2022/07/18 01:26:43;;;;;;;4.20;0.43;;;;;;;16.50;100.00;100368.78;7390758;19;20023;-76
2022/07/18 01:29:09;;;;;;;1.25;0.32;;;;;;;16.52;100.00;100366.25;7385969;19;20499;-76
2022/07/18 01:31:35;;;;;;;0.98;0.30;;;;;;;16.51;100.00;100364.72;7386920;19;20110;-76
2022/07/18 01:34:02;;;;;;;0.82;0.45;;;;;;;16.47;100.00;100358.56;7384993;19;20019;-76
2022/07/18 01:36:28;;;;;;;0.47;0.22;;;;;;;16.42;100.00;100361.31;7388626;19;20041;-76
2022/07/18 01:38:54;;;;;;;0.20;0.13;;;;;;;16.35;100.00;100356.19;7383061;19;20018;-76
2022/07/18 01:41:21;;;;;;;0.43;0.38;;;;;;;16.27;100.00;100361.50;7382627;19;20011;-77
2022/07/18 01:43:47;;;;;;;1.17;0.28;;;;;;;16.18;100.00;100353.28;7385957;19;20490;-78
2022/07/18 01:46:13;;;;;;;1.48;0.40;;;;;;;16.16;100.00;100355.03;7388506;19;20022;-78
2022/07/18 01:48:40;;;;;;;2.05;0.47;;;;;;;16.12;100.00;100355.28;7385327;19;20023;-78
2022/07/18 01:51:10;;;;;;;2.38;0.70;;;;;;;16.09;100.00;100367.50;7386058;19;20014;-78
2022/07/18 01:53:38;;;;;;;0.90;0.30;;;;;;;16.06;100.00;100357.28;7384558;19;20078;-78
2022/07/18 01:56:05;;;;;;;1.10;0.30;;;;;;;16.03;100.00;100354.69;7383868;19;20032;-78
2022/07/18 01:58:31;;;;;;;0.75;0.30;;;;;;;16.00;100.00;100355.72;7382595;19;20122;-78
2022/07/18 02:00:58;;;;;;;1.27;0.55;;;;;;;15.94;100.00;100350.03;7384480;19;20026;-78
2022/07/18 02:03:24;;;;;;;2.35;0.70;;;;;;;15.92;100.00;100352.59;7382759;19;20037;-78
2022/07/18 02:05:50;;;;;;;0.20;0.20;;;;;;;15.92;100.00;100358.97;7383294;19;20014;-78
2022/07/18 02:08:16;;;;;;;1.75;0.50;;;;;;;15.90;100.00;100343.88;7384668;19;20026;-78
2022/07/18 02:10:42;;;;;;;5.50;0.43;;;;;;;15.91;100.00;100346.22;7387559;19;20480;-78
2022/07/18 02:13:08;;;;;;;2.67;0.40;;;;;;;15.91;100.00;100345.44;7385852;19;20098;-78
2022/07/18 02:15:34;;;;;;;1.67;0.50;;;;;;;15.92;100.00;100347.75;7384367;19;20014;-78
2022/07/18 02:18:00;;;;;;;0.73;0.52;;;;;;;15.90;100.00;100339.06;7385426;19;20022;-78
2022/07/18 02:20:27;;;;;;;2.03;0.32;;;;;;;15.91;100.00;100329.38;7390749;19;20074;-78
2022/07/18 02:22:53;;;;;;;1.95;0.35;;;;;;;15.89;100.00;100325.50;7393279;19;20476;-77
2022/07/18 02:25:19;;;;;;;0.57;0.35;;;;;;;15.88;100.00;100335.97;7390135;19;20030;-77
2022/07/18 02:27:45;;;;;;;1.55;0.68;;;;;;;15.85;100.00;100330.59;7392844;19;20025;-78
2022/07/18 02:30:12;;;;;;;0.80;0.30;;;;;;;15.82;100.00;100332.38;7389606;19;20014;-78
2022/07/18 02:32:38;;;;;;;1.17;0.40;;;;;;;15.80;100.00;100332.09;7390326;19;20017;-78
2022/07/18 02:35:07;;;;;;;1.60;0.45;;;;;;;15.80;100.00;100323.66;7390729;19;20018;-78
2022/07/18 02:37:33;;;;;;;1.77;0.22;;;;;;;15.78;100.00;100331.06;7390739;19;20018;-78
2022/07/18 02:40:00;;;;;;;2.38;0.52;;;;;;;15.73;100.00;100323.34;7392328;19;20025;-78
2022/07/18 02:42:26;;;;;;;0.50;0.28;;;;;;;15.72;100.00;100322.56;7390704;19;20078;-78
2022/07/18 02:44:52;;;;;;;0.43;0.43;;;;;;;15.68;100.00;100318.47;7392622;19;20022;-78
2022/07/18 02:47:18;;;;;;;2.15;0.47;;;;;;;15.68;100.00;100315.66;7394072;19;20018;-78
2022/07/18 02:49:44;;;;;;;1.98;0.75;;;;;;;15.63;100.00;100324.81;7389623;19;20364;-78
2022/07/18 02:52:10;;;;;;;1.52;0.65;;;;;;;15.59;100.00;100319.41;7390054;19;20497;-78
2022/07/18 02:54:38;;;;;;;2.33;0.75;;;;;;;15.58;100.00;100311.50;7389277;19;20015;-78
2022/07/18 02:57:05;;;;;;;5.95;0.47;;;;;;;15.56;100.00;100316.84;7393281;19;20510;-77
2022/07/18 02:59:32;;;;;;;0.40;0.35;;;;;;;15.53;100.00;100312.22;7388538;19;20022;-78
2022/07/18 03:01:58;;;;;;;2.83;0.30;;;;;;;15.47;100.00;100305.78;7386926;19;20047;-78
2022/07/18 03:04:25;;;;;;;1.13;0.40;;;;;;;15.40;100.00;100317.47;7386484;19;20018;-81
2022/07/18 03:06:51;;;;;;;0.43;0.32;;;;;;;15.42;100.00;100314.94;7393519;19;20022;-80
2022/07/18 03:09:18;;;;;;;2.42;0.77;;;;;;;15.37;100.00;100321.25;7390613;19;20019;-78
2022/07/18 03:11:45;;;;;;;3.08;1.00;;;;;;;15.33;100.00;100317.91;7394909;19;20041;-78
2022/07/18 03:14:11;;;;;;;0.45;0.45;;;;;;;15.32;100.00;100307.94;7392077;19;20031;-77
2022/07/18 03:16:37;;;;;;;1.20;0.60;;;;;;;15.31;100.00;100309.22;7391885;19;20796;-77
2022/07/18 03:19:04;;;;;;;0.63;0.30;;;;;;;15.30;100.00;100316.84;7388001;19;20019;-76
2022/07/18 03:21:30;;;;;;;2.28;0.30;;;;;;;15.23;100.00;100313.72;7386981;19;20011;-77
2022/07/18 03:23:56;;;;;;;0.77;0.40;;;;;;;15.25;100.00;100305.56;7388353;19;20018;-78
2022/07/18 03:26:22;;;;;;;0.57;0.22;;;;;;;15.33;100.00;100306.69;7390711;19;20029;-77
2022/07/18 03:28:49;;;;;;;0.88;0.30;;;;;;;15.34;100.00;100303.38;7391007;19;20046;-76
2022/07/18 03:31:15;;;;;;;3.13;0.40;;;;;;;15.20;100.00;100305.03;7388959;19;20019;-76
2022/07/18 03:33:41;;;;;;;0.63;0.57;;;;;;;15.26;100.00;100293.09;7386846;19;20026;-77
2022/07/18 03:36:07;;;;;;;2.20;0.50;;;;;;;15.10;100.00;100294.47;7388134;19;20023;-77
2022/07/18 03:38:35;;;;;;;0.47;0.20;;;;;;;15.02;100.00;100294.16;7386854;19;20584;-76
2022/07/18 03:41:02;;;;;;;0.60;0.30;;;;;;;15.03;100.00;100286.50;7386803;19;20014;-76
2022/07/18 03:43:30;;;;;;;4.15;1.08;;;;;;;14.98;100.00;100293.63;7389064;19;20021;-76
2022/07/18 03:45:56;;;;;;;4.25;0.70;;;;;;;15.06;100.00;100289.09;7388426;19;20492;-77
2022/07/18 03:48:22;;;;;;;1.45;0.30;;;;;;;14.96;100.00;100284.16;7390159;19;20026;-76
2022/07/18 03:50:49;;;;;;;0.95;0.45;;;;;;;14.95;100.00;100286.19;7390088;19;20106;-77
2022/07/18 03:53:15;;;;;;;0.98;0.40;;;;;;;14.96;100.00;100290.53;7388953;19;20025;-77
2022/07/18 03:55:41;;;;;;;1.73;0.65;;;;;;;14.95;100.00;100279.78;7387468;19;20341;-76
2022/07/18 03:58:07;;;;;;;1.08;0.52;;;;;;;14.91;100.00;100282.81;7389860;19;20026;-76
2022/07/18 04:00:34;;;;;;;1.80;1.15;;;;;;;14.89;100.00;100274.16;7387975;19;20483;-77
2022/07/18 04:03:00;;;;;;;0.52;0.30;;;;;;;14.87;100.00;100282.28;7389384;19;20037;-77
2022/07/18 04:05:26;;;;;;;0.88;0.70;;;;;;;14.86;100.00;100277.94;7386577;19;20029;-76
2022/07/18 04:07:52;;;;;;;1.00;0.22;;;;;;;14.87;100.00;100273.09;7390635;19;20025;-76
2022/07/18 04:10:18;;;;;;;2.58;1.10;;;;;;;14.83;100.00;100270.53;7388316;19;20023;-77
2022/07/18 04:12:53;;;;;;;1.20;0.88;;;;;;;14.83;100.00;100273.31;7388904;19;20036;-76
2022/07/18 04:15:21;;;;;;;1.33;0.43;;;;;;;14.83;100.00;100264.13;7389793;19;20052;-76
2022/07/18 04:17:48;;;;;;;4.03;1.05;;;;;;;14.81;100.00;100267.41;7385832;19;20110;-77
2022/07/18 04:20:15;;;;;;;0.43;0.43;;;;;;;14.75;100.00;100265.84;7387506;19;20026;-76
2022/07/18 04:22:56;;;;;;;0.43;0.43;;;;;;;14.77;100.00;100257.72;7386207;19;20045;-77
2022/07/18 04:25:25;;;;;;;2.03;0.95;;;;;;;14.78;100.00;100257.22;7388163;19;20017;-77
2022/07/18 04:27:52;;;;;;;3.65;0.75;;;;;;;14.79;100.00;100253.13;7388843;19;20017;-78
2022/07/18 04:30:21;;;;;;;1.80;0.63;;;;;;;14.80;100.00;100260.28;7387210;19;20067;-78
2022/07/18 04:32:48;;;;;;;1.40;0.60;;;;;;;14.82;100.00;100257.75;7387824;19;20022;-77
2022/07/18 04:35:14;;;;;;;1.95;0.52;;;;;;;14.88;100.00;100255.75;7387148;19;20022;-78
2022/07/18 04:37:41;;;;;;;1.67;0.80;;;;;;;14.88;100.00;100250.16;7388227;19;20042;-78
2022/07/18 04:40:09;;;;;;;2.15;0.55;;;;;;;14.93;100.00;100257.88;7385839;19;20032;-78
2022/07/18 04:42:36;;;;;;;1.20;0.60;;;;;;;14.91;100.00;100251.97;7385784;19;20022;-77
2022/07/18 04:45:03;;;;;;;1.05;0.65;;;;;;;14.96;100.00;100256.88;7391299;19;20361;-77
2022/07/18 04:47:29;;;;;;;2.50;0.30;;;;;;;14.99;100.00;100253.06;7388477;19;20021;-77
2022/07/18 04:49:55;;;;;;;5.15;1.23;;;;;;;14.99;100.00;100250.25;7386785;19;20011;-77
2022/07/18 04:52:22;;;;;;;1.95;0.98;;;;;;;15.02;100.00;100254.88;7387973;19;20022;-77
2022/07/18 04:54:48;;;;;;;0.38;0.32;;;;;;;15.04;100.00;100252.34;7386531;19;20083;-77
2022/07/18 04:57:14;;;;;;;1.10;0.32;;;;;;;15.04;100.00;100246.75;7387764;19;20162;-77
2022/07/18 04:59:42;;;;;;;2.05;0.55;;;;;;;15.04;100.00;100246.75;7386046;19;20018;-77
2022/07/18 05:02:09;;;;;;;0.82;0.40;;;;;;;15.07;100.00;100237.31;7386364;19;20598;-77
2022/07/18 05:04:36;;;;;;;0.88;0.65;;;;;;;15.09;100.00;100243.19;7385433;19;20018;-77
2022/07/18 05:07:03;;;;;;;2.97;0.80;;;;;;;15.12;100.00;100242.22;7391498;19;20014;-77
2022/07/18 05:09:29;;;;;;;0.80;0.75;;;;;;;15.15;100.00;100246.06;7388157;19;20027;-77
2022/07/18 05:11:55;;;;;;;1.10;0.82;;;;;;;15.20;100.00;100236.94;7390218;19;20025;-77
2022/07/18 05:14:22;;;;;;;11.60;0.77;;;;;;;15.29;100.00;100238.78;7387832;19;20014;-77
2022/07/18 05:16:48;;;;;;;0.30;0.30;;;;;;;15.34;100.00;100230.41;7386539;19;20022;-78
2022/07/18 05:19:15;;;;;;;1.02;0.88;;;;;;;15.40;100.00;100227.66;7383476;19;20018;-78
2022/07/18 05:21:44;;;;;;;1.48;0.60;;;;;;;15.45;100.00;100235.34;7385042;19;20011;-78
2022/07/18 05:24:11;;;;;;;3.13;1.10;;;;;;;15.52;100.00;100230.06;7385385;19;20071;-78
2022/07/18 05:26:37;;;;;;;4.72;0.90;;;;;;;15.63;100.00;100229.34;7389541;19;20512;-77
2022/07/18 05:29:04;;;;;;;0.82;0.47;;;;;;;15.70;100.00;100240.13;7387184;19;20042;-78
2022/07/18 05:31:30;;;;;;;2.97;0.82;;;;;;;15.79;100.00;100239.91;7385080;19;20015;-77
2022/07/18 05:33:57;;;;;;;1.42;0.73;;;;;;;15.85;100.00;100224.63;7383664;19;20672;-78
2022/07/18 05:36:23;;;;;;;0.57;0.15;;;;;;;15.94;100.00;100232.06;7385410;19;20106;-77
2022/07/18 05:38:49;;;;;;;0.90;0.40;;;;;;;15.96;100.00;100226.72;7383789;19;20010;-77
2022/07/18 05:41:15;;;;;;;2.65;0.68;;;;;;;16.00;100.00;100224.44;7382659;19;20037;-78
2022/07/18 05:43:41;;;;;;;4.28;1.05;;;;;;;16.07;100.00;100220.41;7385794;19;20029;-77
2022/07/18 05:46:08;;;;;;;4.40;1.02;;;;;;;16.12;100.00;100223.22;7388238;19;20010;-79
2022/07/18 05:48:34;;;;;;;1.60;0.50;;;;;;;16.20;100.00;100221.44;7386297;19;20018;-78
2022/07/18 05:51:00;;;;;;;1.63;0.93;;;;;;;16.29;100.00;100220.47;7384070;19;20041;-78
2022/07/18 05:53:26;;;;;;;3.03;0.63;;;;;;;16.36;100.00;100223.56;7384817;19;20667;-78
2022/07/18 05:55:53;;;;;;;0.75;0.55;;;;;;;16.42;100.00;100213.09;7391828;19;20019;-79
2022/07/18 05:58:19;;;;;;;1.20;0.43;;;;;;;16.54;100.00;100216.75;7391737;19;20026;-78
2022/07/18 06:00:45;;;;;;;2.67;0.73;;;;;;;16.62;100.00;100218.53;7391137;19;20045;-79
2022/07/18 06:03:11;;;;;;;2.00;0.60;;;;;;;16.71;100.00;100202.69;7392731;19;20014;-78
2022/07/18 06:05:38;;;;;;;3.67;1.40;;;;;;;16.77;100.00;100220.34;7392186;19;20020;-78
2022/07/18 06:08:04;;;;;;;3.42;0.95;;;;;;;16.85;100.00;100218.59;7396683;19;20023;-78
2022/07/18 06:10:30;;;;;;;3.05;0.57;;;;;;;16.93;100.00;100211.94;7395619;19;20038;-78
2022/07/18 06:12:57;;;;;;;4.85;1.58;;;;;;;16.95;100.00;100212.19;7391159;19;20015;-78
2022/07/18 06:15:23;;;;;;;3.58;0.93;;;;;;;17.00;100.00;100207.84;7390201;19;20006;-79
2022/07/18 06:17:50;;;;;;;1.50;0.50;;;;;;;17.10;100.00;100211.94;7391223;19;20019;-78
2022/07/18 06:20:17;;;;;;;3.47;1.05;;;;;;;17.17;100.00;100209.34;7392790;19;20022;-79
2022/07/18 06:22:43;;;;;;;1.80;0.47;;;;;;;17.35;100.00;100206.03;7392445;19;20370;-79
2022/07/18 06:25:09;;;;;;;1.45;0.88;;;;;;;17.47;100.00;100212.41;7390870;19;20063;-79
2022/07/18 06:27:36;;;;;;;2.83;1.23;;;;;;;17.44;100.00;100210.63;7391430;19;20022;-79
2022/07/18 06:30:04;;;;;;;2.03;1.02;;;;;;;17.49;100.00;100223.94;7390615;19;20416;-78
2022/07/18 06:32:31;;;;;;;2.28;0.43;;;;;;;17.50;100.00;100210.63;7390615;19;20022;-78
2022/07/18 06:34:57;;;;;;;6.03;0.95;;;;;;;17.53;100.00;100220.88;7389476;19;20047;-79
2022/07/18 06:37:23;;;;;;;5.72;1.02;;;;;;;17.56;100.00;100214.22;7393158;19;20093;-78
2022/07/18 06:39:49;;;;;;;4.05;1.08;;;;;;;17.63;100.00;100222.91;7390291;19;20031;-78
2022/07/18 06:42:15;;;;;;;2.13;0.95;;;;;;;17.73;100.00;100218.53;7388482;19;20015;-78
2022/07/18 06:44:41;;;;;;;2.47;0.82;;;;;;;17.90;100.00;100218.47;7392506;19;20353;-78
2022/07/18 06:47:07;;;;;;;3.08;0.82;;;;;;;17.99;100.00;100213.34;7394160;19;20014;-78
2022/07/18 06:49:34;;;;;;;3.20;0.73;;;;;;;18.10;100.00;100210.44;7391173;19;20106;-78
2022/07/18 06:52:00;;;;;;;3.30;0.73;;;;;;;18.25;100.00;100218.59;7389041;19;20018;-78
2022/07/18 06:54:27;;;;;;;4.03;1.23;;;;;;;18.42;100.00;100219.28;7389908;19;20035;-79
2022/07/18 06:56:54;;;;;;;1.35;0.93;;;;;;;18.64;100.00;100213.56;7392864;19;20019;-79
2022/07/18 06:59:21;;;;;;;3.60;0.80;;;;;;;18.83;100.00;100219.31;7387914;19;20634;-78
2022/07/18 07:01:48;;;;;;;1.13;0.63;;;;;;;18.97;100.00;100209.72;7389873;19;20022;-78
2022/07/18 07:04:14;;;;;;;4.50;0.65;;;;;;;19.10;100.00;100220.41;7388094;19;20022;-78
2022/07/18 07:06:40;;;;;;;1.27;0.30;;;;;;;19.22;100.00;100213.34;7393471;19;20342;-78
2022/07/18 07:09:06;;;;;;;1.27;0.63;;;;;;;19.33;100.00;100207.63;7395478;19;20536;-78
2022/07/18 07:11:33;;;;;;;3.92;0.77;;;;;;;19.39;100.00;100203.47;7394732;19;20119;-79
2022/07/18 07:13:59;;;;;;;1.48;0.40;;;;;;;19.43;100.00;100203.94;7392015;19;20028;-78
2022/07/18 07:16:25;;;;;;;4.38;0.50;;;;;;;19.46;100.00;100200.06;7389899;19;20032;-79
2022/07/18 07:18:51;;;;;;;3.55;0.50;;;;;;;19.46;100.00;100205.72;7386423;19;20022;-78
2022/07/18 07:21:17;;;;;;;1.63;0.40;;;;;;;19.37;100.00;100203.25;7387369;19;20472;-78
2022/07/18 07:23:43;;;;;;;1.50;0.70;;;;;;;19.28;100.00;100206.38;7387455;19;20020;-78
2022/07/18 07:26:09;;;;;;;0.77;0.28;;;;;;;19.23;100.00;100204.34;7391090;19;20019;-78
2022/07/18 07:28:36;;;;;;;2.53;0.40;;;;;;;19.18;100.00;100202.38;7390745;19;20014;-78
2022/07/18 07:31:02;;;;;;;1.67;0.22;;;;;;;19.21;100.00;100215.41;7389185;19;20014;-78
2022/07/18 07:33:28;;;;;;;3.40;1.15;;;;;;;19.21;100.00;100209.75;7389446;19;20022;-78
2022/07/18 07:35:54;;;;;;;0.85;0.40;;;;;;;19.22;100.00;100214.13;7389122;19;20474;-78
2022/07/18 07:38:22;;;;;;;1.35;0.50;;;;;;;19.23;100.00;100198.69;7388238;19;20026;-78
2022/07/18 07:40:48;;;;;;;3.92;1.35;;;;;;;19.24;100.00;100210.78;7388043;19;20035;-79
2022/07/18 07:43:16;;;;;;;1.77;0.35;;;;;;;19.22;100.00;100214.13;7391071;19;20014;-78
2022/07/18 07:45:46;;;;;;;2.35;0.68;;;;;;;19.19;100.00;100206.69;7388222;19;20018;-78
2022/07/18 07:48:12;;;;;;;2.28;0.85;;;;;;;19.22;100.00;100208.47;7388585;19;20017;-79
2022/07/18 07:50:39;;;;;;;1.30;0.30;;;;;;;19.28;100.00;100203.53;7388502;19;20025;-78
2022/07/18 07:53:05;;;;;;;1.35;0.40;;;;;;;19.32;100.00;100212.50;7389663;19;20022;-80
2022/07/18 07:55:31;;;;;;;3.03;0.55;;;;;;;19.31;100.00;100204.56;7388960;19;20031;-77
2022/07/18 07:57:57;;;;;;;0.10;0.10;;;;;;;19.36;100.00;100207.34;7389468;19;20018;-78
2022/07/18 08:00:24;;;;;;;0.70;0.20;;;;;;;19.40;100.00;100205.00;7386995;19;20387;-77
2022/07/18 08:02:58;;;;;;;0.80;0.28;;;;;;;19.49;100.00;100203.91;7388948;19;20032;-77
2022/07/18 08:05:25;;;;;;;2.65;0.60;;;;;;;19.54;100.00;100203.06;7387952;19;20022;-78
2022/07/18 08:07:52;;;;;;;1.15;0.38;;;;;;;19.58;100.00;100207.13;7387695;19;20819;-78
2022/07/18 08:10:19;;;;;;;0.52;0.20;;;;;;;19.62;100.00;100196.28;7388533;19;20014;-78
2022/07/18 08:12:45;;;;;;;2.13;0.52;;;;;;;19.74;100.00;100207.47;7389426;19;20018;-78
2022/07/18 08:15:12;;;;;;;1.95;0.50;;;;;;;19.89;100.00;100196.50;7390701;19;20021;-78
2022/07/18 08:17:38;;;;;;;1.55;0.32;;;;;;;20.04;100.00;100196.84;7386832;19;20045;-78
2022/07/18 08:20:05;;;;;;;2.15;0.63;;;;;;;20.24;100.00;100187.88;7386458;19;20014;-79
2022/07/18 08:22:31;;;;;;;2.50;0.50;;;;;;;20.50;100.00;100190.09;7388965;19;20038;-84
2022/07/18 08:24:58;;;;;;;2.95;0.73;;;;;;;20.74;100.00;100187.94;7391131;19;20832;-83
2022/07/18 08:27:24;;;;;;;0.57;0.20;;;;;;;20.97;100.00;100186.28;7397729;19;20474;-82
2022/07/18 08:29:50;;;;;;;1.55;0.30;;;;;;;21.21;100.00;100187.44;7391231;19;20015;-83
2022/07/18 08:32:16;;;;;;;0.55;0.20;;;;;;;21.49;100.00;100193.38;7392196;19;20362;-83
2022/07/18 08:34:42;;;;;;;1.58;0.73;;;;;;;21.79;100.00;100191.78;7387667;19;20019;-82
2022/07/18 08:37:09;;;;;;;0.57;0.20;;;;;;;21.97;100.00;100184.47;7392075;19;20046;-82
2022/07/18 08:39:35;;;;;;;1.92;0.50;;;;;;;22.12;100.00;100183.91;7386062;19;20412;-82
2022/07/18 08:42:01;;;;;;;1.85;0.43;;;;;;;22.26;100.00;100177.66;7387987;19;20047;-83
2022/07/18 08:44:28;;;;;;;4.80;0.30;;;;;;;22.44;100.00;100184.50;7390631;19;20345;-82
2022/07/18 08:46:57;;;;;;;1.52;0.20;;;;;;;22.58;100.00;100175.41;7392786;19;20497;-83
2022/07/18 08:49:23;;;;;;;1.40;0.32;;;;;;;22.77;100.00;100171.63;7389607;19;20113;-81
2022/07/18 08:51:51;;;;;;;1.65;0.30;;;;;;;22.94;100.00;100180.50;7389490;19;20018;-78
2022/07/18 08:54:17;;;;;;;1.40;0.30;;;;;;;23.24;100.00;100172.25;7386706;19;20497;-79
2022/07/18 08:56:43;;;;;;;1.38;0.43;;;;;;;23.44;100.00;100168.66;7388656;19;20014;-82
2022/07/18 08:59:09;;;;;;;0.47;0.13;;;;;;;23.63;100.00;100174.09;7385766;19;20018;-79
2022/07/18 09:01:35;;;;;;;2.90;0.28;;;;;;;23.86;100.00;100157.94;7385102;19;20078;-80
2022/07/18 09:04:18;;;;;;;0.52;0.10;;;;;;;24.01;100.00;100170.16;7386526;19;20030;-80
2022/07/18 09:06:46;;;;;;;1.75;0.45;;;;;;;24.24;100.00;100160.97;7390698;19;20022;-79
2022/07/18 09:09:14;;;;;;;1.13;0.00;;;;;;;24.43;100.00;100158.59;7385887;19;20017;-80
2022/07/18 09:12:01;;;;;;;2.80;0.40;;;;;;;24.48;100.00;100149.84;7391451;19;20105;-79
2022/07/18 09:14:44;;;;;;;1.13;0.10;;;;;;;24.60;100.00;100167.38;7389903;19;20019;-80
2022/07/18 09:17:11;;;;;;;1.60;0.40;;;;;;;24.90;100.00;100156.06;7389031;19;20015;-80
2022/07/18 09:19:39;;;;;;;0.90;0.28;;;;;;;25.14;100.00;100163.28;7383269;19;20018;-79
2022/07/18 09:22:18;;;;;;;1.73;0.20;;;;;;;25.33;100.00;100157.97;7384517;19;20022;-81
2022/07/18 09:25:03;;;;;;;3.33;0.35;;;;;;;25.59;100.00;100157.56;7385197;19;20022;-80
2022/07/18 09:27:41;;;;;;;1.73;0.32;;;;;;;25.71;100.00;100152.22;7387837;19;20875;-80
2022/07/18 09:30:26;;;;;;;1.45;0.10;;;;;;;25.92;100.00;100155.59;7387554;19;20031;-79
2022/07/18 09:33:04;;;;;;;0.25;0.10;;;;;;;26.14;100.00;100149.81;7390739;19;20015;-81
2022/07/18 09:35:53;;;;;;;1.20;0.20;;;;;;;26.33;100.00;100149.38;7392282;19;20015;-79
2022/07/18 09:38:28;;;;;;;0.77;0.03;;;;;;;26.52;100.00;100152.50;7392629;19;20029;-79
2022/07/18 09:40:57;;;;;;;0.68;0.32;;;;;;;26.76;100.00;100146.09;7393556;19;20494;-79
2022/07/18 09:43:25;;;;;;;0.32;0.10;;;;;;;26.90;100.00;100150.19;7394641;19;20026;-80
2022/07/18 09:45:53;;;;;;;0.20;0.17;;;;;;;27.16;100.00;100136.66;7391036;19;20415;-80
2022/07/18 09:48:22;;;;;;;0.85;0.05;;;;;;;27.43;100.00;100143.28;7391578;19;20019;-80
2022/07/18 09:50:55;;;;;;;0.22;0.10;;;;;;;27.62;100.00;100144.22;7391729;19;20022;-80
2022/07/18 09:53:24;;;;;;;0.68;0.30;;;;;;;27.78;100.00;100144.84;7390558;19;20014;-81
2022/07/18 09:55:56;;;;;;;1.55;0.10;;;;;;;27.85;100.00;100138.28;7388590;19;20011;-78
2022/07/18 09:58:30;;;;;;;0.30;0.10;;;;;;;27.91;100.00;100141.63;7391259;19;20101;-79
2022/07/18 10:00:59;;;;;;;2.90;0.30;;;;;;;28.04;90.46;100138.44;7393898;19;20022;-79
2022/07/18 10:03:25;;;;;;;1.75;0.13;;;;;;;28.24;92.09;100134.34;7393204;19;20727;-80
2022/07/18 10:05:53;;;;;;;1.02;0.30;;;;;;;28.57;96.78;100134.13;7390684;19;20476;-81
2022/07/18 10:08:22;;;;;;;0.50;0.10;;;;;;;28.69;87.35;100133.00;7391828;19;20029;-80
2022/07/18 10:10:50;;;;;;;0.75;0.00;;;;;;;28.73;92.54;100136.19;7396175;19;20018;-80
2022/07/18 10:13:18;;;;;;;1.50;0.20;;;;;;;28.83;95.29;100139.09;7393532;19;20026;-80
2022/07/18 10:15:47;;;;;;;0.52;0.10;;;;;;;28.87;84.06;100139.44;7394688;19;20015;-78
2022/07/18 10:18:17;;;;;;;1.45;0.00;;;;;;;28.98;77.05;100133.13;7392289;19;20048;-78
2022/07/18 10:20:50;;;;;;;0.63;0.10;;;;;;;29.10;76.22;100134.09;7392561;19;20701;-81
2022/07/18 10:23:22;;;;;;;0.60;0.28;;;;;;;29.34;67.07;100138.09;7393039;19;20776;-81
2022/07/18 10:26:07;;;;;;;17.63;0.75;;;;;;;29.49;75.33;100137.81;7391601;19;20066;-80
2022/07/18 10:28:33;;;;;;;1.10;0.00;;;;;;;29.50;68.51;100140.09;7386439;19;20366;-82
2022/07/18 10:31:14;;;;;;;0.20;0.13;;;;;;;29.52;68.68;100139.50;7390921;19;20041;-81
2022/07/18 10:33:45;;;;;;;8.68;0.63;;;;;;;29.69;62.56;100131.50;7390541;19;20022;-80
2022/07/18 10:36:19;;;;;;;0.63;0.03;;;;;;;29.79;67.31;100135.16;7390266;19;20022;-80
2022/07/18 10:39:13;;;;;;;1.65;0.10;;;;;;;29.91;69.08;100127.44;7389997;19;20037;-80
2022/07/18 10:42:01;;;;;;;0.38;0.20;;;;;;;29.90;73.56;100125.97;7392054;19;20021;-80
2022/07/18 10:44:30;;;;;;;0.73;0.10;;;;;;;29.93;67.63;100121.84;7391700;19;20029;-79
2022/07/18 10:47:12;;;;;;;0.65;0.00;;;;;;;30.05;65.94;100118.38;7396264;19;20033;-82
2022/07/18 10:49:48;;;;;;;0.70;0.10;;;;;;;30.20;61.88;100120.94;7391310;19;20440;-81
2022/07/18 10:52:23;;;;;;;0.32;0.20;;;;;;;30.36;60.00;100125.03;7388869;19;20018;-81
2022/07/18 10:55:05;;;;;;;0.10;0.10;;;;;;;30.51;55.34;100118.94;7387923;19;20018;-81
2022/07/18 10:57:34;;;;;;;0.55;0.10;;;;;;;30.59;60.19;100119.50;7392717;19;20029;-81
2022/07/18 11:00:09;;;;;;;0.63;0.05;;;;;;;30.75;62.18;100120.69;7390889;19;20030;-81
2022/07/18 11:02:47;;;;;;;0.35;0.03;;;;;;;30.83;63.05;100112.63;7388932;19;20027;-81
2022/07/18 11:05:22;;;;;;;0.77;0.00;;;;;;;30.95;51.72;100119.25;7389151;19;20361;-82
2022/07/18 11:08:09;;;;;;;1.98;0.20;;;;;;;31.14;49.28;100116.28;7390007;19;20055;-80
2022/07/18 11:10:46;;;;;;;1.35;0.20;;;;;;;31.31;53.25;100113.16;7391003;19;20018;-81
2022/07/18 11:13:24;;;;;;;1.83;0.10;;;;;;;31.37;47.06;100115.69;7389620;19;20415;-81
2022/07/18 11:16:09;;;;;;;0.10;0.00;;;;;;;31.50;49.92;100117.28;7388928;19;20043;-81
2022/07/18 11:18:44;;;;;;;1.30;0.10;;;;;;;31.52;44.84;100115.31;7389761;19;20082;-80
2022/07/18 11:21:33;;;;;;;0.82;0.00;;;;;;;31.52;48.81;100120.31;7388585;19;20053;-82
2022/07/18 11:24:08;;;;;;;1.27;0.10;;;;;;;31.57;47.41;100122.09;7388342;19;20011;-82